createdAt,value
2023-04-29T00:09:38.837Z,12.72
2023-04-29T00:19:40.197Z,12.64
2023-04-29T00:29:41.654Z,12.54
2023-04-29T00:39:43.189Z,12.44
2023-04-29T00:49:44.750Z,12.34
2023-04-29T00:59:46.519Z,12.35
2023-04-29T01:10:11.011Z,12.28
2023-04-29T01:20:13.364Z,12.13
2023-04-29T01:30:36.859Z,11.97
2023-04-29T01:40:46.934Z,11.70
2023-04-29T01:50:48.450Z,11.65
2023-04-29T02:00:50.036Z,11.58
2023-04-29T02:10:55.347Z,11.45
2023-04-29T02:21:01.743Z,11.44
2023-04-29T02:31:03.123Z,11.42
2023-04-29T02:41:04.637Z,11.31
2023-04-29T02:51:06.681Z,11.28
2023-04-29T03:01:08.146Z,11.12
2023-04-29T03:11:09.569Z,11.09
2023-04-29T03:21:11.006Z,11.05
2023-04-29T03:31:12.463Z,11.07
2023-04-29T03:41:13.888Z,11.02
2023-04-29T03:51:15.315Z,10.92
2023-04-29T04:01:16.740Z,10.91
2023-04-29T04:11:18.095Z,10.79
2023-04-29T04:21:19.506Z,10.81
2023-04-29T04:31:21.013Z,10.77
2023-04-29T04:41:22.455Z,10.71
2023-04-29T04:51:23.799Z,10.71
2023-04-29T05:01:25.387Z,10.67
2023-04-29T05:11:26.786Z,10.68
2023-04-29T05:21:28.132Z,10.69
2023-04-29T05:31:29.674Z,10.67
2023-04-29T05:41:31.229Z,10.71
2023-04-29T05:51:32.737Z,10.66
2023-04-29T06:01:34.233Z,10.72
2023-04-29T06:11:36.343Z,10.79
2023-04-29T06:21:38.560Z,10.75
2023-04-29T06:31:40.082Z,10.73
2023-04-29T06:41:41.517Z,10.78
2023-04-29T06:51:42.945Z,10.87
2023-04-29T07:01:45.266Z,10.90
2023-04-29T07:11:47.492Z,10.92
2023-04-29T07:21:48.851Z,10.98
2023-04-29T07:31:50.372Z,10.72
2023-04-29T07:41:52.131Z,10.98
2023-04-29T07:51:53.624Z,11.00
2023-04-29T08:01:55.626Z,10.83
2023-04-29T08:11:57.118Z,10.94
2023-04-29T08:21:58.683Z,10.94
2023-04-29T08:32:00.808Z,10.93
2023-04-29T08:42:08.613Z,10.93
2023-04-29T08:52:10.083Z,11.06
2023-04-29T09:02:17.301Z,11.12
2023-04-29T09:12:19.433Z,11.20
2023-04-29T09:22:20.910Z,11.24
2023-04-29T09:32:22.337Z,11.46
2023-04-29T09:42:23.820Z,11.59
2023-04-29T09:52:25.676Z,11.71
2023-04-29T10:02:27.481Z,11.93
2023-04-29T10:12:29.541Z,12.14
2023-04-29T10:22:51.329Z,12.40
2023-04-29T10:32:53.275Z,12.61
2023-04-29T10:42:55.324Z,12.89
2023-04-29T10:52:57.696Z,13.18
2023-04-29T11:03:01.000Z,13.41
2023-04-29T11:13:41.288Z,13.54
2023-04-29T11:23:42.986Z,13.99
2023-04-29T11:33:44.763Z,14.20
2023-04-29T11:43:46.910Z,14.36
2023-04-29T11:53:48.529Z,14.51
2023-04-29T12:03:50.990Z,14.73
2023-04-29T12:13:52.936Z,14.64
2023-04-29T12:23:54.539Z,14.61
2023-04-29T12:33:57.214Z,14.81
2023-04-29T12:43:58.996Z,14.76
2023-04-29T12:54:01.997Z,14.76
2023-04-29T13:04:05.150Z,14.84
2023-04-29T13:14:07.195Z,15.06
2023-04-29T13:24:09.904Z,15.08
2023-04-29T13:34:11.339Z,15.19
2023-04-29T13:54:48.021Z,15.55
2023-04-29T14:04:40.993Z,15.62
2023-04-29T14:14:42.668Z,15.66
2023-04-29T14:24:44.163Z,15.64
2023-04-29T14:34:45.530Z,15.61
2023-04-29T14:44:47.019Z,15.90
2023-04-29T14:54:48.733Z,15.78
2023-04-29T15:04:50.285Z,15.83
2023-04-29T15:14:52.796Z,15.73
2023-04-29T15:24:54.817Z,15.79
2023-04-29T15:34:56.302Z,15.83
2023-04-29T15:44:57.716Z,15.84
2023-04-29T15:54:59.322Z,15.70
2023-04-29T16:05:00.673Z,15.66
2023-04-29T16:15:02.197Z,15.63
2023-04-29T16:25:04.191Z,15.56
2023-04-29T16:35:06.198Z,15.56
2023-04-29T16:45:08.348Z,15.52
2023-04-29T16:55:11.960Z,15.53
2023-04-29T17:05:13.733Z,15.48
2023-04-29T17:15:15.869Z,15.34
2023-04-29T17:25:17.899Z,15.23
2023-04-29T17:35:19.441Z,15.15
2023-04-29T17:45:20.944Z,15.08
2023-04-29T17:55:22.364Z,15.03
2023-04-29T18:05:23.826Z,14.97
2023-04-29T18:15:25.317Z,14.89
2023-04-29T18:25:26.837Z,14.87
2023-04-29T18:35:28.436Z,14.77
2023-04-29T18:45:29.906Z,14.71
2023-04-29T18:55:31.399Z,14.64
2023-04-29T19:05:32.914Z,14.42
2023-04-29T19:15:34.789Z,14.26
2023-04-29T19:25:36.227Z,14.05
2023-04-29T19:35:38.037Z,13.78
2023-04-29T19:45:39.793Z,13.55
2023-04-29T19:55:41.377Z,13.43
2023-04-29T20:05:43.151Z,13.23
2023-04-29T20:15:44.607Z,13.00
2023-04-29T20:25:46.520Z,13.14
2023-04-29T20:35:48.024Z,12.96
2023-04-29T20:45:50.084Z,12.68
2023-04-29T20:55:51.617Z,12.58
2023-04-29T21:05:54.296Z,12.39
2023-04-29T21:15:55.925Z,12.32
2023-04-29T21:25:57.368Z,12.06
2023-04-29T21:35:59.796Z,11.52
2023-04-29T21:46:01.319Z,11.57
2023-04-29T21:56:02.791Z,11.60
2023-04-29T22:06:04.345Z,11.25
2023-04-29T22:16:06.749Z,10.97
2023-04-29T22:26:08.118Z,11.04
2023-04-29T22:36:09.542Z,10.60
2023-04-29T22:46:11.057Z,10.57
2023-04-29T22:56:13.598Z,10.37
2023-04-29T23:06:15.579Z,10.35
2023-04-29T23:16:17.128Z,10.25
2023-04-29T23:26:18.669Z,10.11
2023-04-29T23:36:20.218Z,10.04
2023-04-29T23:46:21.599Z,10.12
2023-04-29T23:56:24.762Z,9.68
